createdAt,value
2018-06-10T00:00:57.830Z,9.40
2018-06-10T00:01:57.999Z,9.30
2018-06-10T00:02:58.171Z,8.90
2018-06-10T00:03:58.347Z,9.60
2018-06-10T00:04:58.527Z,9.90
2018-06-10T00:05:58.711Z,9.80
2018-06-10T00:06:58.880Z,9.70
2018-06-10T00:07:59.092Z,9.90
2018-06-10T00:08:59.281Z,9.80
2018-06-10T00:09:59.481Z,9.60
2018-06-10T00:10:59.647Z,9.80
2018-06-10T00:11:59.834Z,10.20
2018-06-10T00:13:00.052Z,10.50
2018-06-10T00:14:00.191Z,10.90
2018-06-10T00:15:00.394Z,10.50
2018-06-10T00:16:00.537Z,11.20
2018-06-10T00:17:00.745Z,11.20
2018-06-10T00:18:00.912Z,11.10
2018-06-10T00:19:01.132Z,11.00
2018-06-10T00:20:01.304Z,11.20
2018-06-10T00:21:01.464Z,10.80
2018-06-10T00:22:01.655Z,10.10
2018-06-10T00:23:01.835Z,10.60
2018-06-10T00:24:02.042Z,10.60
2018-06-10T00:25:02.216Z,10.10
2018-06-10T00:26:02.434Z,10.60
2018-06-10T00:27:02.574Z,11.40
2018-06-10T00:28:02.795Z,10.70
2018-06-10T00:29:02.939Z,10.00
2018-06-10T00:30:03.154Z,10.20
2018-06-10T00:31:03.347Z,10.50
2018-06-10T00:32:03.519Z,11.00
2018-06-10T00:33:03.688Z,10.90
2018-06-10T00:34:03.882Z,10.60
2018-06-10T00:35:04.080Z,10.60
2018-06-10T00:36:04.310Z,10.40
2018-06-10T00:37:04.427Z,10.70
2018-06-10T00:38:04.610Z,10.80
2018-06-10T00:39:04.770Z,11.10
2018-06-10T00:40:04.951Z,10.80
2018-06-10T00:41:05.133Z,11.50
2018-06-10T00:42:05.319Z,11.30
2018-06-10T00:43:05.504Z,10.60
2018-06-10T00:44:05.718Z,11.10
2018-06-10T00:45:05.904Z,10.60
2018-06-10T00:46:06.089Z,10.90
2018-06-10T00:47:06.281Z,11.50
2018-06-10T00:48:06.514Z,10.50
2018-06-10T00:49:06.696Z,10.60
2018-06-10T00:50:06.809Z,10.60
2018-06-10T00:51:07.007Z,9.60
2018-06-10T00:52:07.171Z,11.00
2018-06-10T00:53:07.353Z,10.40
2018-06-10T00:54:07.572Z,10.70
2018-06-10T00:55:07.717Z,10.80
2018-06-10T00:56:07.900Z,10.80
2018-06-10T00:57:08.075Z,10.10
2018-06-10T00:58:08.259Z,10.30
2018-06-10T00:59:08.437Z,10.20
2018-06-10T01:00:08.680Z,10.40
2018-06-10T01:01:08.822Z,10.50
2018-06-10T01:02:09.003Z,10.70
2018-06-10T01:03:09.166Z,10.50
2018-06-10T01:04:09.311Z,10.90
2018-06-10T01:05:09.519Z,11.20
2018-06-10T01:06:09.702Z,10.10
2018-06-10T01:07:09.919Z,10.30
2018-06-10T01:08:10.093Z,11.90
2018-06-10T01:09:10.244Z,11.10
2018-06-10T01:10:10.429Z,11.40
2018-06-10T01:11:10.593Z,10.70
2018-06-10T01:12:10.814Z,11.50
2018-06-10T01:13:10.992Z,11.10
2018-06-10T01:14:11.174Z,11.20
2018-06-10T01:15:11.314Z,10.70
2018-06-10T01:16:11.569Z,10.20
2018-06-10T01:17:11.687Z,10.70
2018-06-10T01:18:11.851Z,10.70
2018-06-10T01:19:12.033Z,11.00
2018-06-10T01:20:12.225Z,10.90
2018-06-10T01:21:12.441Z,10.90
2018-06-10T01:22:12.616Z,10.30
2018-06-10T01:23:12.791Z,11.00
2018-06-10T01:24:12.948Z,11.40
2018-06-10T01:25:13.143Z,11.20
2018-06-10T01:26:13.382Z,11.20
2018-06-10T01:27:13.484Z,11.00
2018-06-10T01:28:13.689Z,12.40
2018-06-10T01:29:13.842Z,11.30
2018-06-10T01:30:14.013Z,11.80
2018-06-10T01:31:14.209Z,12.50
2018-06-10T01:32:14.438Z,11.80
2018-06-10T01:33:14.576Z,11.30
2018-06-10T01:34:14.761Z,10.90
2018-06-10T01:35:14.944Z,11.70
2018-06-10T01:36:15.116Z,11.30
2018-06-10T01:37:15.288Z,11.10
2018-06-10T01:38:15.480Z,11.20
2018-06-10T01:39:15.705Z,11.00
2018-06-10T01:40:15.853Z,10.90
2018-06-10T01:41:16.031Z,11.40
2018-06-10T01:42:16.223Z,10.80
2018-06-10T01:43:16.436Z,10.70
2018-06-10T01:44:16.569Z,10.40
2018-06-10T01:45:16.741Z,10.90
2018-06-10T01:46:16.938Z,10.60
2018-06-10T01:47:17.085Z,10.90
2018-06-10T01:48:17.266Z,11.20
2018-06-10T01:49:17.475Z,11.00
2018-06-10T01:50:17.625Z,10.60
2018-06-10T01:51:17.833Z,11.10
2018-06-10T01:52:17.996Z,11.60
2018-06-10T01:53:18.191Z,11.60
2018-06-10T01:54:18.416Z,10.80
2018-06-10T01:55:18.554Z,11.60
2018-06-10T01:56:18.753Z,11.00
2018-06-10T01:57:18.950Z,11.10
2018-06-10T01:58:19.135Z,11.50
2018-06-10T01:59:19.340Z,11.20
2018-06-10T02:00:19.480Z,11.10
2018-06-10T02:01:19.691Z,12.30
2018-06-10T02:02:19.877Z,10.40
2018-06-10T02:03:20.033Z,10.30
2018-06-10T02:04:20.206Z,11.10
2018-06-10T02:05:20.378Z,11.00
2018-06-10T02:06:20.539Z,11.30
2018-06-10T02:07:20.781Z,10.70
2018-06-10T02:08:20.919Z,10.70
2018-06-10T02:09:21.113Z,10.80
2018-06-10T02:10:21.275Z,11.10
2018-06-10T02:11:21.474Z,10.60
2018-06-10T02:12:21.635Z,11.10
2018-06-10T02:13:21.852Z,10.50
2018-06-10T02:14:22.024Z,12.00
2018-06-10T02:15:22.234Z,10.90
2018-06-10T02:16:22.381Z,10.50
2018-06-10T02:17:22.580Z,10.60
2018-06-10T02:18:22.753Z,10.60
2018-06-10T02:19:22.973Z,10.80
2018-06-10T02:20:23.120Z,11.30
2018-06-10T02:21:23.348Z,11.00
2018-06-10T02:22:23.497Z,10.30
2018-06-10T02:23:23.707Z,11.20
2018-06-10T02:24:23.845Z,10.40
2018-06-10T02:25:24.029Z,10.60
2018-06-10T02:26:24.230Z,10.40
2018-06-10T02:27:24.412Z,10.80
2018-06-10T02:28:24.575Z,11.00
2018-06-10T02:29:24.768Z,10.50
2018-06-10T02:30:24.940Z,10.90
2018-06-10T02:31:25.120Z,10.70
2018-06-10T02:32:25.329Z,11.10
2018-06-10T02:33:25.520Z,10.80
2018-06-10T02:34:25.748Z,10.20
2018-06-10T02:35:25.909Z,11.20
2018-06-10T02:36:26.105Z,10.70
2018-06-10T02:37:26.279Z,10.60
2018-06-10T02:38:26.428Z,11.00
2018-06-10T02:39:26.599Z,10.70
2018-06-10T02:40:26.809Z,76.00
2018-06-10T02:41:26.971Z,677.00
2018-06-10T02:42:27.145Z,37.10
2018-06-10T02:43:27.358Z,339.00
2018-06-10T02:44:27.510Z,433.80
2018-06-10T02:45:27.717Z,588.40
2018-06-10T02:46:27.886Z,951.20
2018-06-10T02:47:28.071Z,692.60
2018-06-10T02:48:28.265Z,68.70
2018-06-10T02:49:28.407Z,678.60
2018-06-10T02:50:28.615Z,1039.00
2018-06-10T02:51:28.768Z,822.60
2018-06-10T02:52:29.007Z,594.80
2018-06-10T02:53:29.146Z,558.80
2018-06-10T02:54:29.337Z,568.10
2018-06-10T02:55:29.510Z,610.80
2018-06-10T02:56:29.717Z,686.00
2018-06-10T02:57:29.846Z,712.90
2018-06-10T02:58:30.038Z,750.50
2018-06-10T02:59:30.211Z,700.20
2018-06-10T03:00:30.422Z,864.20
2018-06-10T03:01:30.561Z,858.00
2018-06-10T03:02:30.743Z,574.40
2018-06-10T03:03:30.929Z,477.30
2018-06-10T03:04:31.131Z,425.60
2018-06-10T03:05:31.300Z,415.90
2018-06-10T03:06:31.501Z,417.80
2018-06-10T03:07:31.657Z,433.40
2018-06-10T03:08:31.835Z,429.80
2018-06-10T03:09:32.008Z,433.70
2018-06-10T03:10:32.211Z,442.10
2018-06-10T03:11:32.383Z,443.60
2018-06-10T03:12:32.574Z,440.80
2018-06-10T03:13:32.750Z,438.80
2018-06-10T03:14:32.939Z,446.10
2018-06-10T03:15:33.125Z,443.60
2018-06-10T03:16:33.325Z,445.00
2018-06-10T03:17:33.518Z,446.80
2018-06-10T03:18:33.653Z,447.50
2018-06-10T03:19:33.873Z,441.10
2018-06-10T03:20:34.031Z,445.20
2018-06-10T03:21:34.257Z,450.10
2018-06-10T03:22:34.408Z,446.00
2018-06-10T03:23:34.620Z,452.40
2018-06-10T03:24:34.802Z,451.00
2018-06-10T03:25:34.963Z,450.70
2018-06-10T03:26:35.152Z,452.50
2018-06-10T03:27:35.303Z,457.70
2018-06-10T03:28:35.520Z,459.60
2018-06-10T03:29:35.723Z,453.00
2018-06-10T03:30:35.886Z,453.30
2018-06-10T03:31:36.055Z,451.30
2018-06-10T03:32:36.316Z,450.90
2018-06-10T03:33:36.433Z,445.00
2018-06-10T03:34:36.636Z,449.40
2018-06-10T03:35:36.787Z,439.90
2018-06-10T03:36:36.958Z,434.40
2018-06-10T03:37:37.186Z,438.70
2018-06-10T03:38:37.361Z,441.90
2018-06-10T03:39:37.501Z,437.60
2018-06-10T03:40:37.682Z,433.60
2018-06-10T03:41:37.864Z,422.30
2018-06-10T03:42:38.058Z,422.40
2018-06-10T03:43:38.270Z,417.00
2018-06-10T03:44:38.411Z,412.70
2018-06-10T03:45:38.597Z,398.40
2018-06-10T03:46:38.782Z,406.80
2018-06-10T03:47:38.988Z,403.60
2018-06-10T03:48:39.160Z,399.10
2018-06-10T03:49:39.346Z,406.40
2018-06-10T03:50:39.554Z,405.80
2018-06-10T03:51:39.731Z,404.50
2018-06-10T03:52:39.904Z,404.70
2018-06-10T03:53:40.092Z,405.10
2018-06-10T03:54:40.273Z,403.20
2018-06-10T03:55:40.483Z,400.00
2018-06-10T03:56:40.670Z,388.40
2018-06-10T03:57:40.847Z,392.10
2018-06-10T03:58:41.031Z,379.20
2018-06-10T03:59:41.207Z,380.00
2018-06-10T04:00:41.387Z,370.50
2018-06-10T04:01:41.576Z,377.10
2018-06-10T04:02:41.769Z,371.30
2018-06-10T04:03:41.936Z,370.10
2018-06-10T04:04:42.148Z,371.70
2018-06-10T04:05:42.323Z,369.70
2018-06-10T04:06:42.496Z,361.30
2018-06-10T04:07:42.680Z,364.20
2018-06-10T04:08:42.857Z,344.60
2018-06-10T04:09:43.042Z,355.00
2018-06-10T04:10:43.219Z,347.60
2018-06-10T04:11:43.451Z,352.80
2018-06-10T04:12:43.603Z,349.80
2018-06-10T04:13:43.782Z,362.00
2018-06-10T04:14:43.961Z,356.20
2018-06-10T04:15:44.147Z,354.20
2018-06-10T04:16:44.359Z,354.90
2018-06-10T04:17:44.507Z,373.10
2018-06-10T04:18:44.697Z,367.90
2018-06-10T04:19:44.884Z,367.50
2018-06-10T04:20:45.069Z,363.20
2018-06-10T04:21:45.254Z,366.80
2018-06-10T04:22:45.448Z,358.30
2018-06-10T04:23:45.625Z,353.00
2018-06-10T04:24:45.830Z,347.90
2018-06-10T04:25:45.992Z,343.40
2018-06-10T04:26:46.190Z,346.70
2018-06-10T04:27:46.368Z,359.10
2018-06-10T04:28:46.550Z,360.60
2018-06-10T04:29:46.747Z,366.80
2018-06-10T04:30:46.953Z,359.10
2018-06-10T04:31:47.133Z,367.50
2018-06-10T04:32:47.301Z,363.10
2018-06-10T04:33:47.480Z,347.70
2018-06-10T04:34:47.683Z,353.80
2018-06-10T04:35:47.840Z,358.80
2018-06-10T04:36:48.023Z,359.50
2018-06-10T04:37:48.225Z,367.10
2018-06-10T04:38:48.465Z,372.10
2018-06-10T04:39:48.604Z,410.20
2018-06-10T04:40:48.764Z,371.50
2018-06-10T04:41:48.944Z,379.90
2018-06-10T04:42:49.161Z,369.20
2018-06-10T04:43:49.297Z,367.40
2018-06-10T04:44:49.492Z,369.40
2018-06-10T04:45:49.677Z,370.60
2018-06-10T04:46:49.863Z,370.50
2018-06-10T04:47:50.054Z,366.00
2018-06-10T04:48:50.254Z,334.60
2018-06-10T04:49:50.408Z,344.50
2018-06-10T04:50:50.589Z,341.30
2018-06-10T04:51:50.823Z,346.20
2018-06-10T04:52:50.995Z,342.70
2018-06-10T04:53:51.123Z,348.30
2018-06-10T04:54:51.311Z,356.90
2018-06-10T04:55:51.496Z,361.70
2018-06-10T04:56:51.698Z,381.80
2018-06-10T04:57:51.857Z,379.60
2018-06-10T04:58:52.040Z,385.20
2018-06-10T04:59:52.232Z,376.70
2018-06-10T05:00:52.414Z,382.40
2018-06-10T05:01:52.610Z,376.10
2018-06-10T05:02:52.800Z,362.40
2018-06-10T05:03:53.011Z,362.90
2018-06-10T05:04:53.151Z,366.80
2018-06-10T05:05:53.323Z,372.70
2018-06-10T05:06:53.551Z,359.40
2018-06-10T05:07:53.746Z,359.80
2018-06-10T05:08:53.863Z,364.00
2018-06-10T05:09:54.057Z,370.90
2018-06-10T05:10:54.222Z,361.50
2018-06-10T05:11:54.445Z,347.30
2018-06-10T05:12:54.615Z,351.40
2018-06-10T05:13:54.792Z,360.80
2018-06-10T05:14:54.982Z,363.60
2018-06-10T05:15:55.159Z,381.20
2018-06-10T05:16:55.343Z,372.80
2018-06-10T05:17:55.543Z,383.30
2018-06-10T05:18:55.708Z,391.60
2018-06-10T05:19:55.925Z,385.20
2018-06-10T05:20:56.103Z,380.40
2018-06-10T05:21:56.257Z,392.20
2018-06-10T05:22:56.483Z,396.60
2018-06-10T05:23:56.622Z,382.90
2018-06-10T05:24:56.791Z,393.90
2018-06-10T05:25:57.074Z,405.00
2018-06-10T05:26:57.159Z,427.90
2018-06-10T05:27:57.362Z,410.80
2018-06-10T05:28:57.547Z,409.70
2018-06-10T05:29:57.735Z,413.30
2018-06-10T05:30:57.897Z,413.40
2018-06-10T05:31:58.075Z,389.00
2018-06-10T05:32:58.284Z,422.50
2018-06-10T05:33:58.442Z,418.00
2018-06-10T05:34:58.631Z,424.90
2018-06-10T05:35:58.836Z,418.60
2018-06-10T05:36:58.998Z,409.40
2018-06-10T05:37:59.182Z,414.30
2018-06-10T05:38:59.380Z,411.20
2018-06-10T05:39:59.557Z,425.90
2018-06-10T05:40:59.758Z,426.00
2018-06-10T05:41:59.962Z,432.40
2018-06-10T05:43:00.130Z,423.10
2018-06-10T05:44:00.333Z,426.20
2018-06-10T05:45:00.520Z,441.70
2018-06-10T05:46:00.683Z,466.60
2018-06-10T05:47:00.879Z,472.90
2018-06-10T05:48:01.070Z,479.90
2018-06-10T05:49:01.273Z,483.00
2018-06-10T05:50:01.451Z,463.70
2018-06-10T05:51:01.640Z,475.60
2018-06-10T05:52:01.790Z,493.10
2018-06-10T05:53:01.969Z,489.40
2018-06-10T05:54:02.145Z,479.10
2018-06-10T05:55:02.337Z,460.60
2018-06-10T05:56:02.528Z,460.10
2018-06-10T05:57:02.703Z,436.40
2018-06-10T05:58:02.915Z,444.80
2018-06-10T05:59:03.139Z,466.10
2018-06-10T06:00:03.244Z,461.30
2018-06-10T06:01:03.440Z,440.00
2018-06-10T06:02:03.622Z,453.30
2018-06-10T06:03:03.830Z,467.90
2018-06-10T06:04:03.969Z,447.40
2018-06-10T06:05:04.195Z,445.00
2018-06-10T06:06:04.344Z,462.30
2018-06-10T06:07:04.520Z,476.10
2018-06-10T06:08:04.727Z,491.90
2018-06-10T06:09:04.886Z,504.80
2018-06-10T06:10:05.083Z,538.60
2018-06-10T06:11:05.269Z,559.80
2018-06-10T06:12:05.443Z,553.80
2018-06-10T06:13:05.639Z,590.10
2018-06-10T06:14:05.806Z,592.30
2018-06-10T06:15:05.999Z,571.70
2018-06-10T06:16:06.182Z,946.60
2018-06-10T06:17:06.377Z,1072.70
2018-06-10T06:18:06.563Z,1042.20
2018-06-10T06:19:06.750Z,985.40
2018-06-10T06:20:06.935Z,998.10
2018-06-10T06:21:07.107Z,1011.90
2018-06-10T06:22:07.294Z,1030.30
2018-06-10T06:23:07.487Z,1017.10
2018-06-10T06:24:07.672Z,1013.60
2018-06-10T06:25:07.863Z,1008.70
2018-06-10T06:26:08.036Z,977.90
2018-06-10T06:27:08.218Z,976.70
2018-06-10T06:28:08.444Z,961.60
2018-06-10T06:29:08.620Z,970.20
2018-06-10T06:30:08.798Z,965.10
2018-06-10T06:31:08.983Z,974.80
2018-06-10T06:32:09.156Z,971.30
2018-06-10T06:33:09.342Z,995.20
2018-06-10T06:34:09.522Z,1001.40
2018-06-10T06:35:09.707Z,982.10
2018-06-10T06:36:09.900Z,990.30
2018-06-10T06:37:10.114Z,930.50
2018-06-10T06:38:10.279Z,905.50
2018-06-10T06:39:10.493Z,876.00
2018-06-10T06:40:10.663Z,870.60
2018-06-10T06:41:10.813Z,870.40
2018-06-10T06:42:11.004Z,882.20
2018-06-10T06:43:11.199Z,903.90
2018-06-10T06:44:11.348Z,909.30
2018-06-10T06:45:11.534Z,947.80
2018-06-10T06:46:11.754Z,919.00
2018-06-10T06:47:11.939Z,908.60
2018-06-10T06:48:12.089Z,898.50
2018-06-10T06:49:12.280Z,907.70
2018-06-10T06:50:12.495Z,958.90
2018-06-10T06:51:12.632Z,938.70
2018-06-10T06:52:12.845Z,977.60
2018-06-10T06:53:13.021Z,937.00
2018-06-10T06:54:13.207Z,935.50
2018-06-10T06:55:13.389Z,949.70
2018-06-10T06:56:13.574Z,944.60
2018-06-10T06:57:13.771Z,1024.10
2018-06-10T06:58:13.934Z,995.10
2018-06-10T06:59:14.144Z,1003.60
2018-06-10T07:00:14.319Z,1011.70
2018-06-10T07:01:14.510Z,1017.80
2018-06-10T07:02:14.700Z,994.50
2018-06-10T07:03:14.924Z,1016.00
2018-06-10T07:04:15.112Z,953.50
2018-06-10T07:05:15.258Z,908.90
2018-06-10T07:06:15.481Z,913.50
2018-06-10T07:07:15.611Z,933.70
2018-06-10T07:08:15.808Z,967.90
2018-06-10T07:09:16.012Z,960.80
2018-06-10T07:10:16.170Z,1001.60
2018-06-10T07:11:16.374Z,1012.20
2018-06-10T07:12:16.551Z,996.30
2018-06-10T07:13:16.713Z,981.60
2018-06-10T07:14:16.909Z,1005.20
2018-06-10T07:15:17.080Z,1021.80
2018-06-10T07:16:17.276Z,1039.80
2018-06-10T07:17:17.456Z,1067.20
2018-06-10T07:18:17.648Z,1093.00
2018-06-10T07:19:17.841Z,1094.40
2018-06-10T07:20:18.025Z,1111.70
2018-06-10T07:21:18.169Z,1129.20
2018-06-10T07:22:18.367Z,1131.10
2018-06-10T07:23:18.564Z,1124.40
2018-06-10T07:24:18.761Z,1118.10
2018-06-10T07:25:18.914Z,1137.10
2018-06-10T07:26:19.135Z,1139.80
2018-06-10T07:27:19.265Z,1148.60
2018-06-10T07:28:19.452Z,1141.30
2018-06-10T07:29:19.643Z,1152.20
2018-06-10T07:30:19.837Z,1178.50
2018-06-10T07:31:20.039Z,1181.70
2018-06-10T07:32:20.222Z,1202.50
2018-06-10T07:33:20.409Z,1189.60
2018-06-10T07:34:20.581Z,1204.30
2018-06-10T07:35:20.739Z,1207.80
2018-06-10T07:36:20.951Z,1200.70
2018-06-10T07:37:21.148Z,1236.60
2018-06-10T07:38:21.300Z,1235.00
2018-06-10T07:39:21.461Z,1201.20
2018-06-10T07:40:21.655Z,1211.60
2018-06-10T07:41:21.817Z,1213.50
2018-06-10T07:42:22.077Z,1178.20
2018-06-10T07:43:22.190Z,1188.80
2018-06-10T07:44:22.366Z,1193.70
2018-06-10T07:45:22.564Z,1193.20
2018-06-10T07:46:22.751Z,1196.10
2018-06-10T07:47:22.937Z,1197.90
2018-06-10T07:48:23.182Z,1177.60
2018-06-10T07:49:23.338Z,1182.40
2018-06-10T07:50:23.510Z,1185.50
2018-06-10T07:51:23.690Z,1200.50
2018-06-10T07:52:23.879Z,1206.50
2018-06-10T07:53:24.055Z,1176.90
2018-06-10T07:54:24.248Z,1202.10
2018-06-10T07:55:24.437Z,1241.30
2018-06-10T07:56:24.624Z,1238.70
2018-06-10T07:57:24.804Z,1243.60
2018-06-10T07:58:24.977Z,1280.40
2018-06-10T07:59:25.159Z,1282.20
2018-06-10T08:00:25.367Z,1291.20
2018-06-10T08:01:25.537Z,1312.30
2018-06-10T08:02:25.719Z,1345.60
2018-06-10T08:03:25.936Z,1339.30
2018-06-10T08:04:26.107Z,1379.20
2018-06-10T08:05:26.284Z,1417.30
2018-06-10T08:06:26.460Z,1414.40
2018-06-10T08:07:26.648Z,1426.50
2018-06-10T08:08:26.839Z,1461.50
2018-06-10T08:09:27.034Z,1412.90
2018-06-10T08:10:27.222Z,1441.30
2018-06-10T08:11:27.393Z,1418.10
2018-06-10T08:12:27.577Z,1406.60
2018-06-10T08:13:27.761Z,1413.20
2018-06-10T08:14:28.004Z,1410.60
2018-06-10T08:15:28.130Z,1455.90
2018-06-10T08:16:28.312Z,1444.00
2018-06-10T08:17:28.512Z,1481.70
2018-06-10T08:18:28.714Z,1479.90
2018-06-10T08:19:28.877Z,1409.80
2018-06-10T08:20:29.077Z,1358.50
2018-06-10T08:21:29.249Z,1355.80
2018-06-10T08:22:29.426Z,1354.90
2018-06-10T08:23:29.666Z,1369.90
2018-06-10T08:24:29.822Z,1345.50
2018-06-10T08:25:30.016Z,1343.80
2018-06-10T08:26:30.264Z,1347.20
2018-06-10T08:27:30.386Z,1340.10
2018-06-10T08:28:30.573Z,1336.80
2018-06-10T08:29:30.766Z,1312.40
2018-06-10T08:30:30.951Z,1320.60
2018-06-10T08:31:31.140Z,1324.10
2018-06-10T08:32:31.336Z,1320.80
2018-06-10T08:33:31.525Z,1306.30
2018-06-10T08:34:31.714Z,1270.80
2018-06-10T08:35:31.910Z,1264.00
2018-06-10T08:36:32.097Z,1254.20
2018-06-10T08:37:32.286Z,1252.10
2018-06-10T08:38:32.478Z,1248.00
2018-06-10T08:39:32.680Z,1236.10
2018-06-10T08:40:32.872Z,1224.20
2018-06-10T08:41:33.072Z,1221.90
2018-06-10T08:42:33.255Z,1222.00
2018-06-10T08:43:33.418Z,1216.40
2018-06-10T08:44:33.614Z,1198.10
2018-06-10T08:45:33.803Z,1211.40
2018-06-10T08:46:33.987Z,1205.90
2018-06-10T08:47:34.173Z,1202.10
2018-06-10T08:48:34.371Z,1219.20
2018-06-10T08:49:34.556Z,1234.00
2018-06-10T08:50:34.751Z,1242.60
2018-06-10T08:51:34.932Z,1256.80
2018-06-10T08:52:35.115Z,1261.80
2018-06-10T08:53:35.302Z,1264.80
2018-06-10T08:54:35.483Z,1266.90
2018-06-10T08:55:35.674Z,1254.50
2018-06-10T08:56:35.857Z,1250.80
2018-06-10T08:57:36.070Z,1241.90
2018-06-10T08:58:36.224Z,1246.50
2018-06-10T08:59:36.416Z,1258.50
2018-06-10T09:00:36.623Z,1248.40
2018-06-10T09:01:36.794Z,1262.40
2018-06-10T09:02:37.005Z,1265.10
2018-06-10T09:03:37.183Z,1281.10
2018-06-10T09:04:37.344Z,1274.60
2018-06-10T09:05:37.631Z,1292.80
2018-06-10T09:06:37.669Z,1295.50
2018-06-10T09:07:37.880Z,1305.60
2018-06-10T09:08:38.136Z,1294.90
2018-06-10T09:09:38.252Z,1300.60
2018-06-10T09:10:38.413Z,1297.20
2018-06-10T09:11:38.601Z,1302.20
2018-06-10T09:12:38.785Z,1320.10
2018-06-10T09:13:38.960Z,1308.70
2018-06-10T09:14:39.178Z,1303.70
2018-06-10T09:15:39.416Z,1319.80
2018-06-10T09:16:39.543Z,1323.50
2018-06-10T09:17:39.688Z,1319.30
2018-06-10T09:18:39.889Z,1305.40
2018-06-10T09:19:40.096Z,1311.60
2018-06-10T09:20:40.254Z,1319.70
2018-06-10T09:21:40.443Z,1322.00
2018-06-10T09:22:40.626Z,1326.20
2018-06-10T09:23:40.823Z,1319.40
2018-06-10T09:24:41.050Z,1315.50
2018-06-10T09:25:41.173Z,1332.10
2018-06-10T09:26:41.353Z,1338.80
2018-06-10T09:27:41.543Z,1325.30
2018-06-10T09:28:42.140Z,1321.90
2018-06-10T09:29:41.947Z,1329.10
2018-06-10T09:30:42.132Z,1338.80
2018-06-10T09:31:42.329Z,1333.00
2018-06-10T09:32:42.514Z,1324.10
2018-06-10T09:33:42.709Z,1322.90
2018-06-10T09:34:42.892Z,1330.10
2018-06-10T09:35:43.071Z,1346.70
2018-06-10T09:36:43.273Z,1350.90
2018-06-10T09:37:43.474Z,1334.80
2018-06-10T09:38:43.647Z,1335.80
2018-06-10T09:39:43.832Z,1339.80
2018-06-10T09:40:44.011Z,1346.80
2018-06-10T09:41:44.197Z,1345.30
2018-06-10T09:42:44.377Z,1353.00
2018-06-10T09:43:44.587Z,1360.10
2018-06-10T09:44:44.738Z,1363.50
2018-06-10T09:45:44.924Z,1377.30
2018-06-10T09:46:45.105Z,1378.00
2018-06-10T09:47:45.304Z,1384.30
2018-06-10T09:48:45.470Z,1422.30
2018-06-10T09:49:45.656Z,1421.40
2018-06-10T09:50:45.864Z,1449.00
2018-06-10T09:51:46.041Z,1455.60
2018-06-10T09:52:46.195Z,1485.90
2018-06-10T09:53:46.383Z,1502.10
2018-06-10T09:54:46.572Z,1515.20
2018-06-10T09:55:46.786Z,1532.00
2018-06-10T09:56:46.990Z,1501.50
2018-06-10T09:57:47.134Z,1470.90
2018-06-10T09:58:47.318Z,1505.30
2018-06-10T09:59:47.494Z,1556.80
2018-06-10T10:00:47.686Z,1533.70
2018-06-10T10:01:47.863Z,1510.10
2018-06-10T10:02:48.078Z,1521.70
2018-06-10T10:03:48.237Z,1548.10
2018-06-10T10:04:48.413Z,1553.40
2018-06-10T10:05:48.601Z,1554.40
2018-06-10T10:06:48.780Z,1508.90
2018-06-10T10:07:48.986Z,1521.10
2018-06-10T10:08:49.236Z,1386.30
2018-06-10T10:09:49.364Z,1514.10
2018-06-10T10:10:49.542Z,1494.20
2018-06-10T10:11:49.738Z,1504.00
2018-06-10T10:12:49.911Z,1482.90
2018-06-10T10:13:50.101Z,1504.00
2018-06-10T10:14:50.290Z,1445.40
2018-06-10T10:15:50.475Z,1469.30
2018-06-10T10:16:50.681Z,1446.80
2018-06-10T10:17:50.866Z,1430.70
2018-06-10T10:18:51.052Z,1441.10
2018-06-10T10:19:51.210Z,1398.60
2018-06-10T10:20:51.428Z,1437.00
2018-06-10T10:21:51.576Z,1473.10
2018-06-10T10:22:51.785Z,1474.70
2018-06-10T10:23:51.945Z,1435.40
2018-06-10T10:24:52.136Z,1446.10
2018-06-10T10:25:52.348Z,1431.10
2018-06-10T10:26:52.534Z,1406.20
2018-06-10T10:27:52.710Z,1418.10
2018-06-10T10:28:52.967Z,1470.00
2018-06-10T10:29:53.144Z,1517.30
2018-06-10T10:30:53.375Z,1490.60
2018-06-10T10:31:53.499Z,1374.80
2018-06-10T10:32:53.702Z,1488.20
2018-06-10T10:33:53.888Z,1448.40
2018-06-10T10:34:54.102Z,1442.10
2018-06-10T10:35:54.251Z,1414.50
2018-06-10T10:36:54.435Z,1402.60
2018-06-10T10:37:54.619Z,1379.50
2018-06-10T10:38:54.808Z,1405.00
2018-06-10T10:39:54.982Z,1394.60
2018-06-10T10:40:55.195Z,1396.80
2018-06-10T10:41:55.356Z,1445.90
2018-06-10T10:42:55.536Z,1446.00
2018-06-10T10:43:55.704Z,1440.50
2018-06-10T10:44:55.906Z,1483.50
2018-06-10T10:45:56.083Z,1478.60
2018-06-10T10:46:56.250Z,1448.70
2018-06-10T10:47:56.455Z,1463.00
2018-06-10T10:48:56.652Z,1495.80
2018-06-10T10:49:56.836Z,1489.50
2018-06-10T10:50:57.047Z,1532.50
2018-06-10T10:51:57.212Z,1463.00
2018-06-10T10:52:57.391Z,1373.00
2018-06-10T10:53:57.565Z,1332.30
2018-06-10T10:54:57.797Z,1355.40
2018-06-10T10:55:57.927Z,1341.70
2018-06-10T10:56:58.180Z,1326.40
2018-06-10T10:57:58.335Z,1291.80
2018-06-10T10:58:58.532Z,1320.70
2018-06-10T10:59:58.687Z,1354.40
2018-06-10T11:00:58.819Z,1312.60
2018-06-10T11:01:59.122Z,1307.70
2018-06-10T11:02:59.215Z,1329.30
2018-06-10T11:03:59.386Z,1314.90
2018-06-10T11:04:59.586Z,1318.50
2018-06-10T11:05:59.792Z,1312.20
2018-06-10T11:06:59.944Z,1284.70
2018-06-10T11:08:00.168Z,1318.70
2018-06-10T11:09:00.358Z,1277.50
2018-06-10T11:10:00.540Z,1214.30
2018-06-10T11:11:00.823Z,1265.40
2018-06-10T11:12:00.918Z,1239.80
2018-06-10T11:13:01.104Z,1242.70
2018-06-10T11:14:01.308Z,1257.60
2018-06-10T11:15:01.486Z,1261.90
2018-06-10T11:16:01.696Z,1231.80
2018-06-10T11:17:01.839Z,1239.80
2018-06-10T11:18:02.033Z,1255.80
2018-06-10T11:19:02.215Z,1188.80
2018-06-10T11:20:02.407Z,1232.60
2018-06-10T11:21:02.602Z,1215.30
2018-06-10T11:22:02.792Z,1305.80
2018-06-10T11:23:02.989Z,1133.20
2018-06-10T11:24:03.183Z,1171.00
2018-06-10T11:25:03.374Z,1223.60
2018-06-10T11:26:03.566Z,1191.20
2018-06-10T11:27:03.781Z,1206.90
2018-06-10T11:28:03.965Z,1196.60
2018-06-10T11:29:04.145Z,1229.20
2018-06-10T11:30:04.339Z,1243.40
2018-06-10T11:31:04.569Z,1264.20
2018-06-10T11:32:04.718Z,1246.90
2018-06-10T11:33:04.910Z,1202.50
2018-06-10T11:34:05.108Z,1212.70
2018-06-10T11:35:05.290Z,1255.90
2018-06-10T11:36:05.501Z,1236.90
2018-06-10T11:37:05.699Z,1259.10
2018-06-10T11:38:05.886Z,1269.20
2018-06-10T11:39:06.080Z,1298.40
2018-06-10T11:40:06.270Z,1273.60
2018-06-10T11:41:06.468Z,1308.40
2018-06-10T11:42:06.660Z,1313.70
2018-06-10T11:43:06.846Z,1297.70
2018-06-10T11:44:07.035Z,1285.50
2018-06-10T11:45:07.235Z,1271.30
2018-06-10T11:46:07.427Z,1277.40
2018-06-10T11:47:07.624Z,1277.10
2018-06-10T11:48:07.816Z,1289.30
2018-06-10T11:49:08.004Z,1264.70
2018-06-10T11:50:08.216Z,1296.50
2018-06-10T11:51:08.390Z,1304.00
2018-06-10T11:52:08.644Z,1342.30
2018-06-10T11:53:08.776Z,1336.90
2018-06-10T11:54:08.968Z,1312.50
2018-06-10T11:55:09.169Z,1291.40
2018-06-10T11:56:09.345Z,1308.20
2018-06-10T11:57:09.544Z,1309.60
2018-06-10T11:58:09.755Z,1322.10
2018-06-10T11:59:09.911Z,1303.60
2018-06-10T12:00:10.115Z,1305.80
2018-06-10T12:01:10.322Z,1275.20
2018-06-10T12:02:10.483Z,1270.50
2018-06-10T12:03:10.676Z,1281.60
2018-06-10T12:04:10.867Z,1265.80
2018-06-10T12:05:11.090Z,1296.20
2018-06-10T12:06:11.246Z,1290.20
2018-06-10T12:07:11.441Z,1268.80
2018-06-10T12:08:11.629Z,1240.70
2018-06-10T12:09:11.826Z,1264.60
2018-06-10T12:10:12.013Z,1262.90
2018-06-10T12:11:12.205Z,1260.40
2018-06-10T12:12:12.390Z,1264.80
2018-06-10T12:13:12.635Z,1276.30
2018-06-10T12:14:12.778Z,1261.60
2018-06-10T12:15:12.968Z,1318.40
2018-06-10T12:16:13.170Z,1299.20
2018-06-10T12:17:13.350Z,1291.90
2018-06-10T12:18:13.544Z,1300.30
2018-06-10T12:19:13.735Z,1284.90
2018-06-10T12:20:13.926Z,1271.50
2018-06-10T12:21:14.122Z,1215.50
2018-06-10T12:22:14.310Z,1271.70
2018-06-10T12:23:14.503Z,1255.70
2018-06-10T12:24:14.693Z,1279.10
2018-06-10T12:25:14.885Z,1289.70
2018-06-10T12:26:15.077Z,1298.90